createdAt,value
2019-03-15T00:00:57.994Z,5.80
2019-03-15T00:03:28.949Z,5.70
2019-03-15T00:05:59.627Z,5.70
2019-03-15T00:08:30.988Z,5.70
2019-03-15T00:11:02.872Z,5.60
2019-03-15T00:13:33.532Z,5.60
2019-03-15T00:16:04.205Z,5.50
2019-03-15T00:18:35.718Z,5.60
2019-03-15T00:21:06.392Z,5.60
2019-03-15T00:23:37.061Z,5.60
2019-03-15T00:26:07.725Z,5.60
2019-03-15T00:28:38.679Z,5.50
2019-03-15T00:31:09.925Z,5.60
2019-03-15T00:33:40.932Z,5.60
2019-03-15T00:36:12.224Z,5.60
2019-03-15T00:38:42.880Z,5.70
2019-03-15T00:41:14.392Z,5.60
2019-03-15T00:43:45.056Z,5.70
2019-03-15T00:46:15.700Z,5.70
2019-03-15T00:48:46.382Z,5.70
2019-03-15T00:51:17.057Z,5.70
2019-03-15T00:53:47.793Z,5.70
2019-03-15T00:56:18.452Z,5.70
2019-03-15T00:58:49.117Z,5.70
2019-03-15T01:01:20.506Z,5.80
2019-03-15T01:03:51.243Z,5.80
2019-03-15T01:06:22.252Z,5.80
2019-03-15T01:08:52.921Z,5.80
2019-03-15T01:11:23.577Z,5.80
2019-03-15T01:13:54.242Z,5.80
2019-03-15T01:16:25.274Z,5.90
2019-03-15T01:18:56.014Z,5.80
2019-03-15T01:21:26.681Z,5.90
2019-03-15T01:23:57.349Z,5.90
2019-03-15T01:26:28.350Z,5.90
2019-03-15T01:28:59.637Z,5.90
2019-03-15T01:31:30.308Z,5.90
2019-03-15T01:34:01.340Z,5.90
2019-03-15T01:36:32.123Z,5.90
2019-03-15T01:39:02.881Z,6.00
2019-03-15T01:41:33.563Z,6.00
2019-03-15T01:44:04.227Z,6.00
2019-03-15T01:46:35.239Z,5.90
2019-03-15T01:49:05.974Z,6.00
2019-03-15T01:51:36.917Z,6.00
2019-03-15T01:54:07.580Z,6.00
2019-03-15T01:56:38.303Z,6.00
2019-03-15T01:59:08.992Z,6.00
2019-03-15T03:01:54.265Z,6.00
2019-03-15T03:04:24.928Z,6.00
2019-03-15T03:06:55.601Z,6.10
2019-03-15T03:09:26.261Z,6.00
2019-03-15T03:11:57.010Z,6.10
2019-03-15T03:14:27.675Z,6.10
2019-03-15T03:16:58.374Z,6.10
2019-03-15T03:19:29.302Z,6.10
2019-03-15T03:22:00.105Z,6.10
2019-03-15T03:24:31.387Z,6.10
2019-03-15T03:27:02.344Z,6.10
2019-03-15T03:29:33.010Z,6.10
2019-03-15T03:32:03.662Z,6.10
2019-03-15T03:34:34.996Z,6.10
2019-03-15T03:37:05.825Z,6.10
2019-03-15T03:39:36.476Z,6.10
2019-03-15T03:42:07.559Z,6.10
2019-03-15T03:44:39.286Z,6.10
2019-03-15T03:47:10.281Z,6.10
2019-03-15T03:49:41.297Z,6.10
2019-03-15T03:52:12.709Z,6.10
2019-03-15T03:54:43.789Z,6.20
2019-03-15T03:57:14.461Z,6.20
2019-03-15T03:59:45.161Z,6.20
2019-03-15T04:02:15.835Z,6.20
2019-03-15T04:04:46.489Z,6.20
2019-03-15T04:07:17.260Z,6.20
2019-03-15T04:09:49.237Z,6.20
2019-03-15T04:12:20.348Z,6.20
2019-03-15T04:14:51.021Z,6.20
2019-03-15T04:17:22.108Z,6.20
2019-03-15T04:19:52.980Z,6.10
2019-03-15T04:22:24.462Z,6.10
2019-03-15T04:24:55.481Z,6.10
2019-03-15T04:27:26.149Z,6.10
2019-03-15T04:29:56.798Z,6.10
2019-03-15T04:32:28.076Z,6.10
2019-03-15T04:34:59.789Z,6.10
2019-03-15T04:37:30.793Z,6.10
2019-03-15T04:40:01.456Z,6.10
2019-03-15T04:42:32.190Z,6.10
2019-03-15T04:45:02.861Z,6.10
2019-03-15T04:47:33.528Z,6.20
2019-03-15T04:50:04.363Z,6.20
2019-03-15T04:52:35.631Z,6.20
2019-03-15T04:55:06.581Z,6.10
2019-03-15T04:57:37.257Z,6.10
2019-03-15T05:00:10.129Z,6.10
2019-03-15T05:02:40.797Z,6.20
2019-03-15T05:05:12.019Z,6.10
2019-03-15T05:07:42.668Z,6.10
2019-03-15T05:10:13.813Z,6.20
2019-03-15T05:12:44.749Z,6.10
2019-03-15T05:15:15.413Z,6.10
2019-03-15T05:17:46.120Z,6.20
2019-03-15T05:20:17.050Z,6.20
2019-03-15T05:22:48.312Z,6.20
2019-03-15T05:25:19.306Z,6.20
2019-03-15T05:27:50.953Z,6.20
2019-03-15T05:30:21.702Z,6.20
2019-03-15T05:32:52.697Z,6.20
2019-03-15T05:35:24.436Z,6.20
2019-03-15T05:37:55.360Z,6.20
2019-03-15T05:40:26.050Z,6.20
2019-03-15T05:42:56.984Z,6.20
2019-03-15T05:45:28.002Z,6.20
2019-03-15T05:47:59.989Z,6.20
2019-03-15T05:50:30.652Z,6.20
2019-03-15T05:53:01.409Z,6.20
2019-03-15T05:55:32.365Z,6.20
2019-03-15T05:58:03.016Z,6.20
2019-03-15T06:00:33.680Z,6.20
2019-03-15T06:03:06.532Z,6.20
2019-03-15T06:05:37.197Z,6.30
2019-03-15T06:08:07.860Z,6.30
2019-03-15T06:10:38.793Z,6.30
2019-03-15T06:13:09.460Z,6.30
2019-03-15T06:15:40.111Z,6.30
2019-03-15T06:18:10.813Z,6.40
2019-03-15T06:20:41.817Z,6.40
2019-03-15T06:23:12.906Z,6.40
2019-03-15T06:25:43.917Z,6.40
2019-03-15T06:28:14.900Z,6.40
2019-03-15T06:30:46.245Z,6.40
2019-03-15T06:33:17.604Z,6.50
2019-03-15T06:35:48.625Z,6.50
2019-03-15T06:38:19.721Z,6.50
2019-03-15T06:40:50.484Z,6.50
2019-03-15T06:43:21.197Z,6.50
2019-03-15T06:45:51.888Z,6.50
2019-03-15T06:48:22.968Z,6.60
2019-03-15T06:50:54.898Z,6.60
2019-03-15T06:53:25.569Z,6.60
2019-03-15T06:55:56.850Z,6.60
2019-03-15T06:58:27.868Z,6.70
2019-03-15T07:00:58.820Z,6.70
2019-03-15T07:03:29.486Z,6.70
2019-03-15T07:06:00.161Z,6.70
2019-03-15T07:08:31.154Z,6.70
2019-03-15T07:11:01.828Z,6.80
2019-03-15T07:13:32.581Z,6.80
2019-03-15T07:16:03.585Z,6.80
2019-03-15T07:18:35.506Z,6.80
2019-03-15T07:21:06.397Z,6.80
2019-03-15T07:23:38.121Z,6.80
2019-03-15T07:26:09.076Z,6.90
2019-03-15T07:28:39.745Z,6.90
2019-03-15T07:31:10.445Z,6.90
2019-03-15T07:33:41.505Z,6.90
2019-03-15T07:36:12.180Z,6.90
2019-03-15T07:38:42.856Z,6.90
2019-03-15T07:41:13.870Z,6.90
2019-03-15T07:43:45.893Z,6.90
2019-03-15T07:46:16.961Z,6.90
2019-03-15T07:48:47.625Z,6.90
2019-03-15T07:51:18.824Z,6.90
2019-03-15T07:53:49.645Z,6.90
2019-03-15T07:56:20.746Z,6.90
2019-03-15T07:58:51.948Z,6.90
2019-03-15T08:01:23.336Z,6.90
2019-03-15T08:03:54.723Z,6.90
2019-03-15T08:06:34.606Z,6.90
2019-03-15T08:08:58.025Z,6.90
2019-03-15T08:11:29.060Z,6.90
2019-03-15T08:14:00.087Z,6.90
2019-03-15T08:16:34.335Z,6.90
2019-03-15T08:19:04.971Z,6.90
2019-03-15T08:21:35.961Z,6.90
2019-03-15T08:24:06.905Z,6.90
2019-03-15T08:26:37.561Z,6.90
2019-03-15T08:29:09.945Z,6.90
2019-03-15T08:31:41.517Z,6.90
2019-03-15T08:34:12.345Z,7.00
2019-03-15T08:36:43.018Z,7.00
2019-03-15T08:39:13.697Z,7.00
2019-03-15T08:41:44.864Z,7.00
2019-03-15T08:44:17.571Z,7.10
2019-03-15T08:46:48.233Z,7.10
2019-03-15T08:49:19.415Z,7.10
2019-03-15T08:52:03.096Z,7.10
2019-03-15T08:54:22.832Z,7.10
2019-03-15T08:56:53.908Z,7.20
2019-03-15T08:59:25.455Z,7.20
2019-03-15T09:01:56.185Z,7.20
2019-03-15T09:04:27.778Z,7.30
2019-03-15T09:06:58.724Z,7.30
2019-03-15T09:09:29.794Z,7.30
2019-03-15T09:12:00.481Z,7.40
2019-03-15T09:14:32.429Z,7.50
2019-03-15T09:17:03.517Z,7.50
2019-03-15T09:19:34.224Z,7.50
2019-03-15T09:22:05.000Z,7.50
2019-03-15T09:24:36.103Z,7.60
2019-03-15T09:27:10.106Z,7.60
2019-03-15T09:29:39.567Z,7.60
2019-03-15T09:32:10.289Z,7.60
2019-03-15T09:34:41.404Z,7.70
2019-03-15T09:37:12.713Z,7.70
2019-03-15T09:39:43.668Z,7.70
2019-03-15T09:42:14.353Z,7.70
2019-03-15T09:44:45.033Z,7.70
2019-03-15T09:47:15.713Z,7.80
2019-03-15T09:49:46.377Z,7.80
2019-03-15T09:52:17.058Z,7.70
2019-03-15T09:54:48.061Z,7.80
2019-03-15T09:57:18.728Z,7.80
2019-03-15T09:59:49.404Z,7.80
2019-03-15T10:02:30.226Z,7.80
2019-03-15T10:04:53.133Z,7.80
2019-03-15T10:07:37.385Z,7.90
2019-03-15T10:09:57.045Z,7.90
2019-03-15T10:12:27.988Z,7.90
2019-03-15T10:14:59.009Z,7.90
2019-03-15T10:17:30.021Z,7.90
2019-03-15T10:20:01.144Z,8.00
2019-03-15T10:22:31.821Z,8.00
2019-03-15T10:25:03.328Z,8.10
2019-03-15T10:27:35.070Z,8.00
2019-03-15T10:30:08.020Z,8.10
2019-03-15T10:32:38.966Z,8.10
2019-03-15T10:35:09.965Z,8.20
2019-03-15T10:37:40.896Z,8.20
2019-03-15T10:40:13.457Z,8.20
2019-03-15T10:42:44.121Z,8.30
2019-03-15T10:45:14.777Z,8.20
2019-03-15T10:47:45.516Z,8.30
2019-03-15T10:50:16.195Z,8.30
2019-03-15T10:52:46.849Z,8.30
2019-03-15T10:55:20.535Z,8.40
2019-03-15T10:57:50.244Z,8.40
2019-03-15T11:00:22.277Z,8.50
2019-03-15T11:02:53.237Z,8.50
2019-03-15T11:05:24.168Z,8.60
2019-03-15T11:07:54.997Z,8.60
2019-03-15T11:10:25.661Z,8.70
2019-03-15T11:12:56.350Z,8.70
2019-03-15T11:15:27.877Z,8.80
2019-03-15T11:17:58.629Z,8.90
2019-03-15T11:20:29.426Z,8.90
2019-03-15T11:23:00.790Z,9.00
2019-03-15T11:25:31.737Z,9.00
2019-03-15T11:28:02.665Z,9.00
2019-03-15T11:30:33.329Z,9.10
2019-03-15T11:33:04.960Z,9.10
2019-03-15T11:35:35.969Z,9.20
2019-03-15T11:38:06.627Z,9.20
2019-03-15T11:40:38.180Z,9.20
2019-03-15T11:43:09.089Z,9.30
2019-03-15T11:45:40.113Z,9.30
2019-03-15T11:48:10.779Z,9.30
2019-03-15T11:50:41.438Z,9.40
2019-03-15T11:53:12.478Z,9.40
2019-03-15T11:55:43.189Z,9.40
2019-03-15T11:58:15.280Z,9.40
2019-03-15T12:00:48.888Z,9.50
2019-03-15T12:03:20.714Z,9.50
2019-03-15T12:05:51.394Z,9.50
2019-03-15T12:08:22.045Z,9.60
2019-03-15T12:10:52.730Z,9.60
2019-03-15T12:13:23.665Z,9.60
2019-03-15T12:15:54.350Z,9.60
2019-03-15T12:18:25.083Z,9.70
2019-03-15T12:20:56.059Z,9.70
2019-03-15T12:23:27.084Z,9.70
2019-03-15T12:25:58.275Z,9.70
2019-03-15T12:28:28.937Z,9.70
2019-03-15T12:30:59.601Z,9.80
2019-03-15T12:33:30.265Z,9.80
2019-03-15T12:36:03.231Z,9.80
2019-03-15T12:38:33.285Z,9.90
2019-03-15T12:41:04.309Z,9.90
2019-03-15T12:43:36.020Z,9.90
2019-03-15T12:46:06.705Z,10.00
2019-03-15T12:48:37.388Z,10.10
2019-03-15T12:51:08.165Z,10.10
2019-03-15T12:53:40.020Z,10.20
2019-03-15T12:56:11.262Z,10.30
2019-03-15T12:58:42.053Z,10.30
2019-03-15T13:01:13.427Z,10.30
2019-03-15T13:03:44.372Z,10.40
2019-03-15T13:06:15.586Z,10.40
2019-03-15T13:08:47.458Z,10.50
2019-03-15T13:11:18.784Z,10.50
2019-03-15T13:13:50.865Z,10.60
2019-03-15T13:16:22.798Z,10.50
2019-03-15T13:18:53.484Z,10.60
2019-03-15T13:21:24.689Z,10.60
2019-03-15T13:23:55.429Z,10.70
2019-03-15T13:26:28.946Z,10.70
2019-03-15T13:28:59.567Z,10.80
2019-03-15T13:31:31.092Z,10.70
2019-03-15T13:34:03.956Z,10.80
2019-03-15T13:36:34.909Z,10.80
2019-03-15T13:39:07.665Z,10.80
2019-03-15T13:41:38.349Z,10.80
2019-03-15T13:44:09.121Z,10.80
2019-03-15T13:46:39.777Z,10.80
2019-03-15T13:49:10.456Z,10.80
2019-03-15T13:51:41.206Z,10.90
2019-03-15T13:54:12.169Z,10.90
2019-03-15T13:56:43.195Z,10.90
2019-03-15T13:59:14.153Z,10.90
2019-03-15T14:01:45.512Z,10.90
2019-03-15T14:04:16.193Z,11.00
2019-03-15T14:06:47.677Z,11.00
2019-03-15T14:09:19.204Z,11.00
2019-03-15T14:11:49.885Z,11.10
2019-03-15T14:14:20.845Z,11.10
2019-03-15T14:16:52.237Z,11.10
2019-03-15T14:19:22.976Z,11.20
2019-03-15T14:21:54.522Z,11.20
2019-03-15T14:24:26.393Z,11.20
2019-03-15T14:26:57.350Z,11.30
2019-03-15T14:29:28.021Z,11.20
2019-03-15T14:31:59.793Z,11.30
2019-03-15T14:34:30.459Z,11.20
2019-03-15T14:37:01.646Z,11.30
2019-03-15T14:39:33.001Z,11.20
2019-03-15T14:42:04.817Z,11.30
2019-03-15T14:44:36.636Z,11.30
2019-03-15T14:47:08.024Z,11.20
2019-03-15T14:49:38.697Z,11.20
2019-03-15T14:52:09.648Z,11.30
2019-03-15T14:54:42.379Z,11.30
2019-03-15T14:57:13.239Z,11.30
2019-03-15T14:59:44.369Z,11.30
2019-03-15T15:02:15.041Z,11.30
2019-03-15T15:04:45.741Z,11.30
2019-03-15T15:07:16.791Z,11.40
2019-03-15T15:09:47.962Z,11.40
2019-03-15T15:12:18.698Z,11.40
2019-03-15T15:14:50.000Z,11.40
2019-03-15T15:17:20.696Z,11.40
2019-03-15T15:19:51.509Z,11.50
2019-03-15T15:22:23.531Z,11.50
2019-03-15T15:24:54.509Z,11.50
2019-03-15T15:27:25.727Z,11.50
2019-03-15T15:29:56.926Z,11.50
2019-03-15T15:32:28.529Z,11.50
2019-03-15T15:34:59.481Z,11.60
2019-03-15T15:37:31.721Z,11.60
2019-03-15T15:40:02.772Z,11.70
2019-03-15T15:42:34.092Z,11.60
2019-03-15T15:45:05.149Z,11.60
2019-03-15T15:47:35.905Z,11.60
2019-03-15T15:50:06.826Z,11.50
2019-03-15T15:52:37.576Z,11.50
2019-03-15T15:55:09.901Z,11.50
2019-03-15T15:57:40.870Z,11.50
2019-03-15T16:00:12.917Z,11.50
2019-03-15T16:02:43.603Z,11.50
2019-03-15T16:05:15.200Z,11.50
2019-03-15T16:07:45.878Z,11.40
2019-03-15T16:10:18.267Z,11.40
2019-03-15T16:12:49.816Z,11.40
2019-03-15T16:15:20.568Z,11.40
2019-03-15T16:17:51.234Z,11.40
2019-03-15T16:20:22.342Z,11.30
2019-03-15T16:22:52.993Z,11.30
2019-03-15T16:25:23.681Z,11.30
2019-03-15T16:27:55.587Z,11.30
2019-03-15T16:30:26.377Z,11.20
2019-03-15T16:32:57.876Z,11.20
2019-03-15T16:35:29.297Z,11.20
2019-03-15T16:38:00.241Z,11.20
2019-03-15T16:40:31.029Z,11.20
2019-03-15T16:43:01.831Z,11.20
2019-03-15T16:45:32.509Z,11.20
2019-03-15T16:48:03.520Z,11.20
2019-03-15T16:50:34.229Z,11.20
2019-03-15T16:53:04.942Z,11.20
2019-03-15T16:55:36.050Z,11.20
2019-03-15T16:58:07.074Z,11.20
2019-03-15T17:00:39.889Z,11.20
2019-03-15T17:03:11.394Z,11.20
2019-03-15T17:05:42.389Z,11.20
2019-03-15T17:08:13.148Z,11.30
2019-03-15T17:10:44.324Z,11.20
2019-03-15T17:13:15.855Z,11.20
2019-03-15T17:15:47.177Z,11.10
2019-03-15T17:18:18.210Z,11.20
2019-03-15T17:20:49.181Z,11.20
2019-03-15T17:23:20.485Z,11.20
2019-03-15T17:25:52.041Z,11.20
2019-03-15T17:28:23.688Z,11.30
2019-03-15T17:30:54.649Z,11.30
2019-03-15T17:33:25.333Z,11.30
2019-03-15T17:35:56.273Z,11.30
2019-03-15T17:38:26.961Z,11.30
2019-03-15T17:40:58.506Z,11.30
2019-03-15T17:43:29.816Z,11.30
2019-03-15T17:46:00.494Z,11.30
2019-03-15T17:48:31.613Z,11.40
2019-03-15T17:51:02.302Z,11.40
2019-03-15T17:53:32.985Z,11.30
2019-03-15T17:56:04.513Z,11.30
2019-03-15T17:58:35.181Z,11.30
2019-03-15T18:01:06.230Z,11.30
2019-03-15T18:03:37.116Z,11.30
2019-03-15T18:06:08.152Z,11.20
2019-03-15T18:08:39.613Z,11.30
2019-03-15T18:11:11.149Z,11.20
2019-03-15T18:13:42.248Z,11.20
2019-03-15T18:16:13.172Z,11.20
2019-03-15T18:18:43.937Z,11.30
2019-03-15T18:21:14.615Z,11.20
2019-03-15T18:23:45.605Z,11.30
2019-03-15T18:26:16.560Z,11.30
2019-03-15T18:28:47.235Z,11.30
2019-03-15T18:31:17.929Z,11.30
2019-03-15T18:33:49.045Z,11.30
2019-03-15T18:36:20.067Z,11.30
2019-03-15T18:38:52.023Z,11.30
2019-03-15T18:41:24.634Z,11.30
2019-03-15T18:43:55.313Z,11.30
2019-03-15T18:46:26.633Z,11.30
2019-03-15T18:48:57.478Z,11.30
2019-03-15T18:51:28.573Z,11.30
2019-03-15T18:54:00.038Z,11.30
2019-03-15T18:56:31.101Z,11.30
2019-03-15T18:59:01.920Z,11.30
2019-03-15T19:01:32.710Z,11.30
2019-03-15T19:04:03.405Z,11.30
2019-03-15T19:06:34.581Z,11.30
2019-03-15T19:09:07.266Z,11.30
2019-03-15T19:11:38.568Z,11.30
2019-03-15T19:14:10.380Z,11.30
2019-03-15T19:16:42.257Z,11.30
2019-03-15T19:19:13.797Z,11.20
2019-03-15T19:21:44.477Z,11.30
2019-03-15T19:24:15.424Z,11.20
2019-03-15T19:26:48.113Z,11.20
2019-03-15T19:29:19.632Z,11.20
2019-03-15T19:31:50.305Z,11.20
2019-03-15T19:34:20.976Z,11.20
2019-03-15T19:36:52.022Z,11.20
2019-03-15T19:39:22.731Z,11.20
2019-03-15T19:41:53.749Z,11.20
2019-03-15T19:44:24.684Z,11.20
2019-03-15T19:46:56.028Z,11.10
2019-03-15T19:49:27.029Z,11.10
2019-03-15T19:51:58.062Z,11.10
2019-03-15T19:54:31.956Z,11.10
2019-03-15T19:57:02.364Z,11.10
2019-03-15T19:59:33.052Z,11.10
2019-03-15T20:02:03.709Z,11.10
2019-03-15T20:04:35.934Z,11.10
2019-03-15T20:07:06.948Z,11.10
2019-03-15T20:09:37.986Z,11.10
2019-03-15T20:12:09.286Z,11.10
2019-03-15T20:14:40.337Z,11.10
2019-03-15T20:17:11.574Z,11.20
2019-03-15T20:19:43.241Z,11.20
2019-03-15T20:22:14.294Z,11.10
2019-03-15T20:24:45.905Z,11.20
2019-03-15T20:27:17.003Z,11.20
2019-03-15T20:29:47.801Z,11.20
2019-03-15T20:32:19.177Z,11.20
2019-03-15T20:34:51.556Z,11.20
2019-03-15T20:37:23.091Z,11.20
2019-03-15T20:39:54.543Z,11.20
2019-03-15T20:42:26.357Z,11.20
2019-03-15T20:44:57.034Z,11.20
2019-03-15T20:47:27.704Z,11.20
2019-03-15T20:49:59.334Z,11.20
2019-03-15T20:52:30.093Z,11.20
2019-03-15T20:55:01.020Z,11.20
2019-03-15T20:57:31.974Z,11.20
2019-03-15T21:00:02.649Z,11.20
2019-03-15T21:02:34.242Z,11.20
2019-03-15T21:05:07.906Z,11.20
2019-03-15T21:07:38.112Z,11.20
2019-03-15T21:10:10.105Z,11.20
2019-03-15T21:12:40.764Z,11.20
2019-03-15T21:15:12.881Z,11.20
2019-03-15T21:17:43.570Z,11.20
2019-03-15T21:20:15.297Z,11.30
2019-03-15T21:22:46.588Z,11.20
2019-03-15T21:25:17.602Z,11.20
2019-03-15T21:27:54.155Z,11.20
2019-03-15T21:30:21.566Z,11.20
2019-03-15T21:32:53.354Z,11.10
2019-03-15T21:35:24.429Z,11.10
2019-03-15T21:37:55.445Z,11.10
2019-03-15T21:40:26.476Z,11.10
2019-03-15T21:42:57.188Z,11.00
2019-03-15T21:45:28.212Z,11.00
2019-03-15T21:47:59.492Z,11.00
2019-03-15T21:50:31.033Z,11.00
2019-03-15T21:53:02.051Z,11.00
2019-03-15T21:55:33.053Z,10.90
2019-03-15T21:58:03.735Z,10.90
2019-03-15T22:00:34.798Z,10.90
2019-03-15T22:03:06.100Z,10.90
2019-03-15T22:05:37.852Z,10.90
2019-03-15T22:08:08.814Z,10.90
2019-03-15T22:10:39.553Z,10.80
2019-03-15T22:13:10.208Z,10.80
2019-03-15T22:15:41.242Z,10.70
2019-03-15T22:18:12.260Z,10.80
2019-03-15T22:20:43.673Z,10.70
2019-03-15T22:23:14.417Z,10.70
2019-03-15T22:25:46.321Z,10.70
2019-03-15T22:28:17.361Z,10.70
2019-03-15T22:30:49.865Z,10.70
2019-03-15T22:33:21.678Z,10.60
2019-03-15T22:35:52.421Z,10.60
2019-03-15T22:38:26.407Z,10.60
2019-03-15T22:40:56.076Z,10.50
2019-03-15T22:43:26.817Z,10.50
2019-03-15T22:45:57.750Z,10.50
2019-03-15T22:48:29.629Z,10.40
2019-03-15T22:51:00.626Z,10.40
2019-03-15T22:53:31.713Z,10.40
2019-03-15T22:56:02.392Z,10.30
2019-03-15T22:58:33.077Z,10.30
2019-03-15T23:01:04.282Z,10.30
2019-03-15T23:03:36.617Z,10.30
2019-03-15T23:06:07.289Z,10.30
2019-03-15T23:08:38.222Z,10.30
2019-03-15T23:11:09.262Z,10.30
2019-03-15T23:13:39.988Z,10.20
2019-03-15T23:16:10.669Z,10.20
2019-03-15T23:18:41.424Z,10.20
2019-03-15T23:21:12.446Z,10.20
2019-03-15T23:23:43.152Z,10.10
2019-03-15T23:26:13.937Z,10.10
2019-03-15T23:28:47.101Z,10.10
2019-03-15T23:31:17.088Z,10.00
2019-03-15T23:33:48.195Z,10.00
2019-03-15T23:36:19.045Z,10.00
2019-03-15T23:38:50.057Z,10.00
2019-03-15T23:41:21.713Z,10.00
2019-03-15T23:43:52.732Z,10.00
2019-03-15T23:46:24.715Z,9.90
2019-03-15T23:48:55.464Z,9.80
2019-03-15T23:51:26.129Z,9.80
2019-03-15T23:53:57.133Z,9.80
2019-03-15T23:56:28.142Z,9.80
2019-03-15T23:59:00.073Z,9.80
